Asherville, Missouri
Current Conditions -  °F | °C
As of 5:53 PM on Monday 24 Nov 2014 (Local Time) from KPOF Reporting Station
Few Clouds Few Clouds  
Wind Chill: 49°   Ceiling: Unl
Heat Index: 49°   Visibility: 10mi
Dew Point: 27°   Wind: 3mph
Humidity: 43%   Direction: 240°WSW
Pressure: 29.92"   Gusts: NA
Location:  36.9506°N, 90.1582°W
Report Text: KPOF 242353Z AUTO 24003KT 10SM FEW075 09/M03 A2992 RMK AO2 SLP133 T00941028 10122 20089 53037
Loading
Personal Weather Stations






























Interactive Weather Map New forecast layout! Learn more

10-Day Weather Forecast

Advertisements
Track Severe Weather on mobile